Soerstokken current weather conditions

sailwx.info

Wind from 100 at 9 knots

Air temperature 6.0° C
Visibility: greater than 5.4 NM
Dewpoint 4.0° C
Present weather: Rain showers.

Last reported at 2015-May-29 17:50 UTC.
Time now 2015-May-30 18:39 UTC

Location: N 59°48' E 005°20'.
View on Google Maps.

See reports from other nearby stations

  
Tides and Currents Weather Stations Pressure Air Temp Water Temp Dewpoint Dewpoint Depression Visibility Wind Speed Wind Dir Waves Ship Positions
date/time (UTC)wind fromknots sea level pressurealtimeterstation pressurevisibilityair tempwater tempwave heightnotes
2015-May-29 17:50 100 9 5.4 6.0 Rain showers.
2015-May-29 17:20 100 11 5.4 7.0 Showers in the vicinity.
2015-May-29 16:50 110 11 5.4 7.0 Showers in the vicinity.
2015-May-29 15:20 240 8 5.411.0
2015-May-29 14:20 5.411.0
2015-May-29 13:50 220 7 5.410.0
2015-May-29 11:50 140 12 5.4 8.0 Showers in the vicinity.
2015-May-29 11:20 160 7 5.4 9.0 Showers in the vicinity.
2015-May-29 10:50 130 6 5.4 6.0 Showers in the vicinity.
2015-May-29 10:20 220 8 6.0 Light rain showers.
2015-May-29 09:50 220 11 5.4 5.0 Heavy rain showers.
2015-May-29 09:20 180 11 5.4 8.0 Light rain showers.
2015-May-29 08:50 180 10 5.4 9.0 Light rain showers.
2015-May-29 08:20 5.4 9.0
2015-May-29 07:50 180 8 5.4 8.0
2015-May-29 07:20 160 7 5.4 8.0
2015-May-29 06:50 140 6 5.4 7.0
2015-May-29 05:50 130 6 5.4 6.0 Showers in the vicinity.
2015-May-29 05:20 110 5 5.4 6.0 Showers in the vicinity.
2015-May-29 04:50 5.4 6.0 Showers in the vicinity.
2015-May-29 04:20 140 8 5.4 6.0 Showers in the vicinity.
2015-May-29 03:50 130 7 5.4 6.0 Showers in the vicinity.